sensor_id;sensor_type;location;lat;lon;timestamp;pressure;altitude;pressure_sealevel;temperature;humidity
10988;BME280;5547;42.672;23.230;2023-05-23T00:02:27;93135.69;;;7.81;100.00
10988;BME280;5547;42.672;23.230;2023-05-23T00:05:28;93141.28;;;7.93;100.00
10988;BME280;5547;42.672;23.230;2023-05-23T00:08:28;93154.94;;;7.88;100.00
10988;BME280;5547;42.672;23.230;2023-05-23T00:11:29;93106.38;;;7.61;100.00
10988;BME280;5547;42.672;23.230;2023-05-23T00:14:30;93112.06;;;7.55;100.00
10988;BME280;5547;42.672;23.230;2023-05-23T00:17:33;92808.34;;;5.13;100.00
10988;BME280;5547;42.672;23.230;2023-05-23T00:20:40;93111.00;;;7.46;100.00
10988;BME280;5547;42.672;23.230;2023-05-23T00:23:42;93135.81;;;7.70;100.00
10988;BME280;5547;42.672;23.230;2023-05-23T00:26:42;93073.41;;;7.13;100.00
10988;BME280;5547;42.672;23.230;2023-05-23T00:29:43;93089.13;;;7.38;100.00
10988;BME280;5547;42.672;23.230;2023-05-23T00:32:43;93063.84;;;7.30;100.00
10988;BME280;5547;42.672;23.230;2023-05-23T00:35:43;93136.09;;;7.79;100.00
10988;BME280;5547;42.672;23.230;2023-05-23T00:38:44;93139.94;;;7.71;100.00
10988;BME280;5547;42.672;23.230;2023-05-23T00:41:49;93024.84;;;6.85;100.00
10988;BME280;5547;42.672;23.230;2023-05-23T00:44:50;93136.91;;;7.72;100.00
10988;BME280;5547;42.672;23.230;2023-05-23T00:47:50;93136.19;;;7.65;100.00
10988;BME280;5547;42.672;23.230;2023-05-23T00:50:52;93124.91;;;7.57;100.00
10988;BME280;5547;42.672;23.230;2023-05-23T00:53:53;93134.81;;;7.46;100.00
10988;BME280;5547;42.672;23.230;2023-05-23T00:56:54;93133.31;;;7.41;100.00
10988;BME280;5547;42.672;23.230;2023-05-23T00:59:55;93091.19;;;7.12;100.00
10988;BME280;5547;42.672;23.230;2023-05-23T01:02:55;93061.53;;;6.80;100.00
10988;BME280;5547;42.672;23.230;2023-05-23T01:05:56;93133.31;;;7.41;100.00
10988;BME280;5547;42.672;23.230;2023-05-23T01:08:56;93152.16;;;7.50;100.00
10988;BME280;5547;42.672;23.230;2023-05-23T01:12:18;93142.75;;;7.46;100.00
10988;BME280;5547;42.672;23.230;2023-05-23T01:15:22;93139.72;;;7.44;100.00
10988;BME280;5547;42.672;23.230;2023-05-23T01:18:33;93130.72;;;7.34;100.00
10988;BME280;5547;42.672;23.230;2023-05-23T01:21:38;93095.81;;;6.94;100.00
10988;BME280;5547;42.672;23.230;2023-05-23T01:27:52;93140.19;;;7.35;100.00
10988;BME280;5547;42.672;23.230;2023-05-23T01:30:57;93139.44;;;7.31;100.00
10988;BME280;5547;42.672;23.230;2023-05-23T01:33:57;93147.00;;;7.29;100.00
10988;BME280;5547;42.672;23.230;2023-05-23T01:36:58;93132.63;;;7.30;100.00
10988;BME280;5547;42.672;23.230;2023-05-23T01:39:58;93133.09;;;7.18;100.00
10988;BME280;5547;42.672;23.230;2023-05-23T01:42:58;93080.00;;;6.87;100.00
10988;BME280;5547;42.672;23.230;2023-05-23T01:45:59;92985.09;;;6.33;100.00
10988;BME280;5547;42.672;23.230;2023-05-23T01:49:02;93046.47;;;6.73;100.00
10988;BME280;5547;42.672;23.230;2023-05-23T01:52:04;93096.56;;;6.98;100.00
10988;BME280;5547;42.672;23.230;2023-05-23T01:55:05;93009.28;;;6.31;100.00
10988;BME280;5547;42.672;23.230;2023-05-23T01:58:09;93054.75;;;6.71;100.00
10988;BME280;5547;42.672;23.230;2023-05-23T02:01:10;93090.81;;;7.10;100.00
10988;BME280;5547;42.672;23.230;2023-05-23T02:04:10;93113.75;;;7.31;100.00
10988;BME280;5547;42.672;23.230;2023-05-23T02:07:11;93059.25;;;6.78;100.00
10988;BME280;5547;42.672;23.230;2023-05-23T02:10:11;93125.16;;;7.21;100.00
10988;BME280;5547;42.672;23.230;2023-05-23T02:13:12;93052.84;;;6.76;100.00
10988;BME280;5547;42.672;23.230;2023-05-23T02:16:12;93122.56;;;7.10;100.00
10988;BME280;5547;42.672;23.230;2023-05-23T02:19:13;93118.44;;;7.02;100.00
10988;BME280;5547;42.672;23.230;2023-05-23T02:22:13;93110.94;;;6.93;100.00
10988;BME280;5547;42.672;23.230;2023-05-23T02:25:14;92972.03;;;5.94;100.00
10988;BME280;5547;42.672;23.230;2023-05-23T02:28:14;93123.00;;;6.94;100.00
10988;BME280;5547;42.672;23.230;2023-05-23T02:31:15;93119.94;;;7.00;100.00
10988;BME280;5547;42.672;23.230;2023-05-23T02:34:16;93106.84;;;6.82;100.00
10988;BME280;5547;42.672;23.230;2023-05-23T02:37:16;93002.53;;;6.16;100.00
10988;BME280;5547;42.672;23.230;2023-05-23T02:40:17;93119.31;;;6.78;100.00
10988;BME280;5547;42.672;23.230;2023-05-23T02:43:17;93101.13;;;6.87;100.00
10988;BME280;5547;42.672;23.230;2023-05-23T02:46:17;93103.03;;;6.86;100.00
10988;BME280;5547;42.672;23.230;2023-05-23T02:49:18;93090.59;;;6.80;100.00
10988;BME280;5547;42.672;23.230;2023-05-23T02:52:18;93068.81;;;6.47;100.00
10988;BME280;5547;42.672;23.230;2023-05-23T02:55:19;93076.75;;;6.47;100.00
10988;BME280;5547;42.672;23.230;2023-05-23T02:58:19;93112.56;;;6.62;100.00
10988;BME280;5547;42.672;23.230;2023-05-23T03:01:20;93123.91;;;6.59;100.00
10988;BME280;5547;42.672;23.230;2023-05-23T03:04:20;93117.44;;;6.67;100.00
10988;BME280;5547;42.672;23.230;2023-05-23T03:07:21;93136.69;;;6.71;100.00
10988;BME280;5547;42.672;23.230;2023-05-23T03:10:21;93120.06;;;6.78;100.00
10988;BME280;5547;42.672;23.230;2023-05-23T03:13:21;93128.69;;;6.86;100.00
10988;BME280;5547;42.672;23.230;2023-05-23T03:16:22;93115.44;;;6.93;100.00
10988;BME280;5547;42.672;23.230;2023-05-23T03:19:23;93069.09;;;6.74;100.00
10988;BME280;5547;42.672;23.230;2023-05-23T03:22:23;93111.59;;;7.12;100.00
10988;BME280;5547;42.672;23.230;2023-05-23T03:25:24;93116.47;;;7.13;100.00
10988;BME280;5547;42.672;23.230;2023-05-23T03:28:25;93120.28;;;7.12;100.00
10988;BME280;5547;42.672;23.230;2023-05-23T03:31:25;93120.19;;;7.27;100.00
10988;BME280;5547;42.672;23.230;2023-05-23T03:34:26;92800.50;;;5.02;100.00
10988;BME280;5547;42.672;23.230;2023-05-23T03:37:26;93073.47;;;7.02;100.00
10988;BME280;5547;42.672;23.230;2023-05-23T03:40:26;93092.19;;;7.33;100.00
10988;BME280;5547;42.672;23.230;2023-05-23T03:43:27;93072.22;;;7.25;100.00
10988;BME280;5547;42.672;23.230;2023-05-23T03:46:27;93138.34;;;7.84;100.00
10988;BME280;5547;42.672;23.230;2023-05-23T03:49:27;93145.38;;;8.02;100.00
10988;BME280;5547;42.672;23.230;2023-05-23T03:52:28;93096.75;;;7.81;100.00
10988;BME280;5547;42.672;23.230;2023-05-23T03:55:30;93119.59;;;8.06;100.00
10988;BME280;5547;42.672;23.230;2023-05-23T03:58:31;93146.22;;;8.36;100.00
10988;BME280;5547;42.672;23.230;2023-05-23T04:01:31;93143.56;;;8.74;100.00
10988;BME280;5547;42.672;23.230;2023-05-23T04:04:32;93077.66;;;8.38;100.00
10988;BME280;5547;42.672;23.230;2023-05-23T04:07:32;93148.34;;;8.87;100.00
10988;BME280;5547;42.672;23.230;2023-05-23T04:10:36;93148.44;;;9.10;100.00
10988;BME280;5547;42.672;23.230;2023-05-23T04:13:36;93149.16;;;9.14;100.00
10988;BME280;5547;42.672;23.230;2023-05-23T04:16:37;93089.63;;;8.88;100.00
10988;BME280;5547;42.672;23.230;2023-05-23T04:19:40;93170.72;;;9.47;100.00
10988;BME280;5547;42.672;23.230;2023-05-23T04:22:40;93010.72;;;8.34;100.00
10988;BME280;5547;42.672;23.230;2023-05-23T04:25:41;93145.63;;;9.24;100.00
10988;BME280;5547;42.672;23.230;2023-05-23T04:28:42;93026.97;;;8.36;100.00
10988;BME280;5547;42.672;23.230;2023-05-23T04:31:45;93118.94;;;9.08;100.00
10988;BME280;5547;42.672;23.230;2023-05-23T04:34:45;93111.78;;;9.32;100.00
10988;BME280;5547;42.672;23.230;2023-05-23T04:37:46;93147.09;;;9.56;100.00
10988;BME280;5547;42.672;23.230;2023-05-23T04:40:46;93092.94;;;9.23;100.00
10988;BME280;5547;42.672;23.230;2023-05-23T04:43:47;93148.91;;;9.86;100.00
10988;BME280;5547;42.672;23.230;2023-05-23T04:46:53;93150.44;;;10.11;100.00
10988;BME280;5547;42.672;23.230;2023-05-23T04:49:55;93154.31;;;9.83;100.00
10988;BME280;5547;42.672;23.230;2023-05-23T04:52:56;93159.31;;;9.50;100.00
10988;BME280;5547;42.672;23.230;2023-05-23T04:55:56;93157.34;;;9.27;100.00
10988;BME280;5547;42.672;23.230;2023-05-23T04:58:57;93148.38;;;9.17;100.00
10988;BME280;5547;42.672;23.230;2023-05-23T05:01:57;93143.66;;;9.29;100.00
10988;BME280;5547;42.672;23.230;2023-05-23T05:04:58;93106.41;;;8.78;100.00
10988;BME280;5547;42.672;23.230;2023-05-23T05:07:58;93147.44;;;9.00;100.00
10988;BME280;5547;42.672;23.230;2023-05-23T05:10:59;93100.50;;;8.67;100.00
10988;BME280;5547;42.672;23.230;2023-05-23T05:13:59;93152.81;;;8.93;100.00
10988;BME280;5547;42.672;23.230;2023-05-23T05:17:00;93096.44;;;8.55;100.00
10988;BME280;5547;42.672;23.230;2023-05-23T05:20:02;93181.88;;;9.04;100.00
10988;BME280;5547;42.672;23.230;2023-05-23T05:23:07;93181.75;;;9.73;100.00
10988;BME280;5547;42.672;23.230;2023-05-23T05:26:09;93181.84;;;9.65;100.00
10988;BME280;5547;42.672;23.230;2023-05-23T05:29:09;93185.59;;;9.68;100.00
10988;BME280;5547;42.672;23.230;2023-05-23T05:32:10;93089.13;;;9.51;100.00
10988;BME280;5547;42.672;23.230;2023-05-23T05:35:10;93177.34;;;10.40;100.00
10988;BME280;5547;42.672;23.230;2023-05-23T05:38:13;93056.50;;;9.27;100.00
10988;BME280;5547;42.672;23.230;2023-05-23T05:41:13;93189.94;;;10.36;100.00
10988;BME280;5547;42.672;23.230;2023-05-23T05:44:14;93180.94;;;10.73;100.00
10988;BME280;5547;42.672;23.230;2023-05-23T05:47:14;93172.31;;;10.46;100.00
10988;BME280;5547;42.672;23.230;2023-05-23T05:50:15;93142.50;;;9.84;100.00
10988;BME280;5547;42.672;23.230;2023-05-23T05:53:15;93202.47;;;10.59;100.00
10988;BME280;5547;42.672;23.230;2023-05-23T05:56:16;93145.44;;;10.40;100.00
10988;BME280;5547;42.672;23.230;2023-05-23T05:59:16;93113.19;;;10.15;100.00
10988;BME280;5547;42.672;23.230;2023-05-23T06:02:17;93139.38;;;10.60;100.00
10988;BME280;5547;42.672;23.230;2023-05-23T06:05:17;93209.72;;;11.59;100.00
10988;BME280;5547;42.672;23.230;2023-05-23T06:08:18;93176.25;;;11.94;100.00
10988;BME280;5547;42.672;23.230;2023-05-23T06:11:18;93205.75;;;12.36;100.00
10988;BME280;5547;42.672;23.230;2023-05-23T06:14:19;93197.91;;;12.29;100.00
10988;BME280;5547;42.672;23.230;2023-05-23T06:17:19;93208.63;;;12.74;100.00
10988;BME280;5547;42.672;23.230;2023-05-23T06:20:20;93186.16;;;12.88;100.00
10988;BME280;5547;42.672;23.230;2023-05-23T06:23:20;93079.53;;;11.61;100.00
10988;BME280;5547;42.672;23.230;2023-05-23T06:26:20;93179.47;;;12.67;100.00
10988;BME280;5547;42.672;23.230;2023-05-23T06:29:21;93161.09;;;12.98;100.00
10988;BME280;5547;42.672;23.230;2023-05-23T06:32:21;93178.00;;;13.37;100.00
10988;BME280;5547;42.672;23.230;2023-05-23T06:35:22;93123.97;;;13.17;100.00
10988;BME280;5547;42.672;23.230;2023-05-23T06:38:22;93181.56;;;13.85;100.00
10988;BME280;5547;42.672;23.230;2023-05-23T06:41:23;93216.13;;;13.93;100.00
10988;BME280;5547;42.672;23.230;2023-05-23T06:44:23;93210.31;;;13.81;100.00
10988;BME280;5547;42.672;23.230;2023-05-23T06:47:23;93217.69;;;14.41;100.00
10988;BME280;5547;42.672;23.230;2023-05-23T06:50:24;93170.81;;;14.37;100.00
10988;BME280;5547;42.672;23.230;2023-05-23T06:53:24;93186.72;;;14.53;100.00
10988;BME280;5547;42.672;23.230;2023-05-23T06:56:25;93163.97;;;14.36;100.00
10988;BME280;5547;42.672;23.230;2023-05-23T06:59:25;93213.88;;;15.12;100.00
10988;BME280;5547;42.672;23.230;2023-05-23T07:02:25;93204.06;;;15.31;100.00
10988;BME280;5547;42.672;23.230;2023-05-23T07:05:26;93202.97;;;15.06;100.00
10988;BME280;5547;42.672;23.230;2023-05-23T07:08:27;93161.50;;;14.54;100.00
10988;BME280;5547;42.672;23.230;2023-05-23T07:11:27;93200.81;;;15.14;100.00
10988;BME280;5547;42.672;23.230;2023-05-23T07:14:28;93178.72;;;15.54;100.00
10988;BME280;5547;42.672;23.230;2023-05-23T07:17:28;93205.59;;;15.19;100.00
10988;BME280;5547;42.672;23.230;2023-05-23T07:20:29;93141.50;;;14.81;100.00
10988;BME280;5547;42.672;23.230;2023-05-23T07:23:32;93186.06;;;14.75;100.00
10988;BME280;5547;42.672;23.230;2023-05-23T07:26:35;93172.78;;;15.28;100.00
10988;BME280;5547;42.672;23.230;2023-05-23T07:29:36;93127.53;;;15.30;100.00
10988;BME280;5547;42.672;23.230;2023-05-23T07:32:36;93166.53;;;15.53;100.00
10988;BME280;5547;42.672;23.230;2023-05-23T07:35:36;93156.91;;;15.65;100.00
10988;BME280;5547;42.672;23.230;2023-05-23T07:38:37;93148.41;;;15.35;100.00
10988;BME280;5547;42.672;23.230;2023-05-23T07:41:37;93153.81;;;15.44;100.00
10988;BME280;5547;42.672;23.230;2023-05-23T07:44:39;93181.34;;;15.98;100.00
10988;BME280;5547;42.672;23.230;2023-05-23T07:47:40;93167.06;;;15.48;100.00
10988;BME280;5547;42.672;23.230;2023-05-23T07:50:41;93171.16;;;15.62;100.00
10988;BME280;5547;42.672;23.230;2023-05-23T07:53:41;93193.13;;;15.47;100.00
10988;BME280;5547;42.672;23.230;2023-05-23T07:56:42;93145.34;;;15.77;100.00
10988;BME280;5547;42.672;23.230;2023-05-23T07:59:42;93185.63;;;16.36;100.00
10988;BME280;5547;42.672;23.230;2023-05-23T08:02:43;93130.03;;;15.87;100.00
10988;BME280;5547;42.672;23.230;2023-05-23T08:05:43;93121.66;;;15.75;100.00
10988;BME280;5547;42.672;23.230;2023-05-23T08:08:43;93149.72;;;15.93;100.00
10988;BME280;5547;42.672;23.230;2023-05-23T08:11:44;93189.13;;;16.64;100.00
10988;BME280;5547;42.672;23.230;2023-05-23T08:14:44;93171.16;;;16.43;100.00
10988;BME280;5547;42.672;23.230;2023-05-23T08:17:45;93189.72;;;16.59;100.00
10988;BME280;5547;42.672;23.230;2023-05-23T08:20:45;93184.66;;;16.89;100.00
10988;BME280;5547;42.672;23.230;2023-05-23T08:23:46;93120.47;;;16.63;100.00
10988;BME280;5547;42.672;23.230;2023-05-23T08:26:47;93182.59;;;17.02;100.00
10988;BME280;5547;42.672;23.230;2023-05-23T08:29:48;93189.75;;;16.87;100.00
10988;BME280;5547;42.672;23.230;2023-05-23T08:32:49;93191.69;;;17.32;100.00
10988;BME280;5547;42.672;23.230;2023-05-23T08:35:49;93182.56;;;17.30;100.00
10988;BME280;5547;42.672;23.230;2023-05-23T08:38:50;93182.56;;;17.39;100.00
10988;BME280;5547;42.672;23.230;2023-05-23T08:41:53;93191.50;;;17.54;100.00
10988;BME280;5547;42.672;23.230;2023-05-23T08:44:54;93051.56;;;16.78;100.00
10988;BME280;5547;42.672;23.230;2023-05-23T08:47:54;93181.41;;;17.92;100.00
10988;BME280;5547;42.672;23.230;2023-05-23T08:50:57;93133.25;;;17.42;100.00
10988;BME280;5547;42.672;23.230;2023-05-23T08:53:58;93172.94;;;17.75;100.00
10988;BME280;5547;42.672;23.230;2023-05-23T08:56:59;93121.16;;;17.37;100.00
10988;BME280;5547;42.672;23.230;2023-05-23T08:59:59;93189.72;;;18.36;100.00
10988;BME280;5547;42.672;23.230;2023-05-23T09:03:01;93177.59;;;18.41;100.00
10988;BME280;5547;42.672;23.230;2023-05-23T09:06:01;93037.22;;;17.00;100.00
10988;BME280;5547;42.672;23.230;2023-05-23T09:09:02;93178.16;;;18.45;100.00
10988;BME280;5547;42.672;23.230;2023-05-23T09:12:03;93145.16;;;18.35;100.00
10988;BME280;5547;42.672;23.230;2023-05-23T09:15:07;93114.75;;;18.20;100.00
10988;BME280;5547;42.672;23.230;2023-05-23T09:18:08;93172.94;;;18.41;92.53
10988;BME280;5547;42.672;23.230;2023-05-23T09:21:10;93169.41;;;18.02;97.15
10988;BME280;5547;42.672;23.230;2023-05-23T09:24:11;93177.09;;;18.52;100.00
10988;BME280;5547;42.672;23.230;2023-05-23T09:27:11;93099.97;;;18.39;100.00
10988;BME280;5547;42.672;23.230;2023-05-23T09:30:12;93180.50;;;18.85;87.19
10988;BME280;5547;42.672;23.230;2023-05-23T09:33:13;93161.09;;;18.72;93.46
10988;BME280;5547;42.672;23.230;2023-05-23T09:36:17;93133.31;;;18.42;90.67
10988;BME280;5547;42.672;23.230;2023-05-23T09:39:18;93128.66;;;18.66;99.48
10988;BME280;5547;42.672;23.230;2023-05-23T09:42:20;93131.72;;;18.98;91.83
10988;BME280;5547;42.672;23.230;2023-05-23T09:45:31;93160.00;;;18.55;86.77
10988;BME280;5547;42.672;23.230;2023-05-23T09:48:31;93146.38;;;18.58;87.89
10988;BME280;5547;42.672;23.230;2023-05-23T09:51:32;93056.03;;;18.33;87.63
10988;BME280;5547;42.672;23.230;2023-05-23T09:54:33;93121.63;;;18.21;89.82
10988;BME280;5547;42.672;23.230;2023-05-23T09:57:34;93088.59;;;18.59;87.34
10988;BME280;5547;42.672;23.230;2023-05-23T10:00:38;93135.13;;;19.23;87.93
10988;BME280;5547;42.672;23.230;2023-05-23T10:06:49;93154.34;;;19.45;87.07
10988;BME280;5547;42.672;23.230;2023-05-23T10:09:55;93165.38;;;19.03;75.31
10988;BME280;5547;42.672;23.230;2023-05-23T10:13:04;93110.81;;;19.08;72.06
10988;BME280;5547;42.672;23.230;2023-05-23T10:16:13;93158.75;;;19.72;71.93
10988;BME280;5547;42.672;23.230;2023-05-23T10:19:22;93127.38;;;19.45;69.37
10988;BME280;5547;42.672;23.230;2023-05-23T10:22:24;93079.13;;;19.03;68.03
10988;BME280;5547;42.672;23.230;2023-05-23T10:25:25;93097.63;;;19.40;72.85
10988;BME280;5547;42.672;23.230;2023-05-23T10:28:26;93149.41;;;19.29;69.91
10988;BME280;5547;42.672;23.230;2023-05-23T10:31:27;93109.72;;;19.74;70.20
10988;BME280;5547;42.672;23.230;2023-05-23T10:34:45;93148.25;;;20.25;69.01
10988;BME280;5547;42.672;23.230;2023-05-23T10:38:01;93139.38;;;19.59;59.66
10988;BME280;5547;42.672;23.230;2023-05-23T10:44:25;93081.31;;;18.51;63.07
10988;BME280;5547;42.672;23.230;2023-05-23T10:47:26;93132.59;;;19.49;62.42
10988;BME280;5547;42.672;23.230;2023-05-23T10:50:32;93060.44;;;19.29;62.40
10988;BME280;5547;42.672;23.230;2023-05-23T10:53:36;93125.50;;;19.96;62.90
10988;BME280;5547;42.672;23.230;2023-05-23T10:56:37;93029.47;;;19.24;56.07
10988;BME280;5547;42.672;23.230;2023-05-23T10:59:38;93051.56;;;19.58;55.23
10988;BME280;5547;42.672;23.230;2023-05-23T11:02:46;93121.25;;;20.25;58.81
10988;BME280;5547;42.672;23.230;2023-05-23T11:05:53;93029.88;;;19.67;57.99
10988;BME280;5547;42.672;23.230;2023-05-23T11:09:04;93003.81;;;19.44;56.87
10988;BME280;5547;42.672;23.230;2023-05-23T11:12:06;93130.72;;;20.76;57.51
10988;BME280;5547;42.672;23.230;2023-05-23T11:18:25;93079.22;;;20.03;60.31
10988;BME280;5547;42.672;23.230;2023-05-23T11:21:28;93094.09;;;20.13;59.58
10988;BME280;5547;42.672;23.230;2023-05-23T11:24:48;93105.84;;;20.31;57.95
10988;BME280;5547;42.672;23.230;2023-05-23T11:27:52;93108.28;;;20.49;59.41
10988;BME280;5547;42.672;23.230;2023-05-23T11:30:56;92854.22;;;19.04;53.47
10988;BME280;5547;42.672;23.230;2023-05-23T11:33:56;93092.88;;;20.35;54.07
10988;BME280;5547;42.672;23.230;2023-05-23T11:36:56;93111.34;;;20.77;53.30
10988;BME280;5547;42.672;23.230;2023-05-23T11:39:57;93096.81;;;20.75;53.74
10988;BME280;5547;42.672;23.230;2023-05-23T11:42:59;93026.78;;;20.30;50.31
10988;BME280;5547;42.672;23.230;2023-05-23T11:46:09;93083.00;;;20.93;50.96
10988;BME280;5547;42.672;23.230;2023-05-23T11:49:10;93092.63;;;21.47;50.71
10988;BME280;5547;42.672;23.230;2023-05-23T11:52:12;93098.53;;;20.98;52.72
10988;BME280;5547;42.672;23.230;2023-05-23T11:55:13;93092.16;;;21.28;49.32
10988;BME280;5547;42.672;23.230;2023-05-23T11:58:13;93062.81;;;20.89;53.34
10988;BME280;5547;42.672;23.230;2023-05-23T12:01:14;93064.72;;;21.09;55.53
10988;BME280;5547;42.672;23.230;2023-05-23T12:04:14;93083.53;;;21.50;49.42
10988;BME280;5547;42.672;23.230;2023-05-23T12:07:18;93072.22;;;20.73;50.19
10988;BME280;5547;42.672;23.230;2023-05-23T12:10:19;93053.16;;;20.82;52.30
10988;BME280;5547;42.672;23.230;2023-05-23T12:13:25;93056.03;;;20.99;54.42
10988;BME280;5547;42.672;23.230;2023-05-23T12:16:27;93081.69;;;21.35;50.86
10988;BME280;5547;42.672;23.230;2023-05-23T12:19:28;93033.31;;;21.43;46.91
10988;BME280;5547;42.672;23.230;2023-05-23T12:22:28;93065.88;;;21.60;48.39
10988;BME280;5547;42.672;23.230;2023-05-23T12:25:37;93064.75;;;21.72;51.11
10988;BME280;5547;42.672;23.230;2023-05-23T12:28:39;93057.84;;;21.71;53.51
10988;BME280;5547;42.672;23.230;2023-05-23T12:31:41;93074.41;;;21.79;51.12
10988;BME280;5547;42.672;23.230;2023-05-23T12:34:41;93064.84;;;21.84;48.87
10988;BME280;5547;42.672;23.230;2023-05-23T12:37:43;93049.97;;;22.11;48.60
10988;BME280;5547;42.672;23.230;2023-05-23T12:40:45;93018.22;;;21.68;47.58
10988;BME280;5547;42.672;23.230;2023-05-23T12:43:52;93049.47;;;21.37;47.47
10988;BME280;5547;42.672;23.230;2023-05-23T12:46:53;93062.50;;;22.08;46.01
10988;BME280;5547;42.672;23.230;2023-05-23T12:49:54;93054.03;;;21.26;46.07
10988;BME280;5547;42.672;23.230;2023-05-23T12:52:54;93022.91;;;21.36;49.85
10988;BME280;5547;42.672;23.230;2023-05-23T12:55:55;93048.19;;;21.59;49.64
10988;BME280;5547;42.672;23.230;2023-05-23T12:58:55;93039.94;;;22.22;48.38
10988;BME280;5547;42.672;23.230;2023-05-23T13:01:56;93012.38;;;21.81;48.24
10988;BME280;5547;42.672;23.230;2023-05-23T13:04:56;93038.13;;;22.08;48.87
10988;BME280;5547;42.672;23.230;2023-05-23T13:07:57;93033.19;;;22.07;45.03
10988;BME280;5547;42.672;23.230;2023-05-23T13:10:58;93038.50;;;20.89;48.88
10988;BME280;5547;42.672;23.230;2023-05-23T13:13:59;93031.94;;;21.27;46.90
10988;BME280;5547;42.672;23.230;2023-05-23T13:16:59;93038.81;;;21.54;45.92
10988;BME280;5547;42.672;23.230;2023-05-23T13:20:00;93033.94;;;21.64;48.31
10988;BME280;5547;42.672;23.230;2023-05-23T13:23:01;92981.94;;;21.92;48.46
10988;BME280;5547;42.672;23.230;2023-05-23T13:26:02;93024.47;;;22.34;43.30
10988;BME280;5547;42.672;23.230;2023-05-23T13:29:02;93046.88;;;22.29;41.27
10988;BME280;5547;42.672;23.230;2023-05-23T13:32:03;93041.09;;;22.10;41.85
10988;BME280;5547;42.672;23.230;2023-05-23T13:35:03;93046.16;;;22.34;39.16
10988;BME280;5547;42.672;23.230;2023-05-23T13:38:04;93045.94;;;21.95;43.32
10988;BME280;5547;42.672;23.230;2023-05-23T13:41:05;93046.44;;;22.42;40.93
10988;BME280;5547;42.672;23.230;2023-05-23T13:44:05;93045.53;;;22.68;39.87
10988;BME280;5547;42.672;23.230;2023-05-23T13:47:09;92944.63;;;22.18;41.86
10988;BME280;5547;42.672;23.230;2023-05-23T13:50:10;93035.22;;;22.72;41.73
10988;BME280;5547;42.672;23.230;2023-05-23T13:53:11;92998.50;;;21.30;43.53
10988;BME280;5547;42.672;23.230;2023-05-23T13:56:15;92962.16;;;20.73;43.30
10988;BME280;5547;42.672;23.230;2023-05-23T13:59:16;93033.97;;;20.80;44.59
10988;BME280;5547;42.672;23.230;2023-05-23T14:02:20;93035.44;;;20.81;43.54
10988;BME280;5547;42.672;23.230;2023-05-23T14:05:21;93036.94;;;20.82;43.69
10988;BME280;5547;42.672;23.230;2023-05-23T14:08:22;92996.84;;;21.38;43.73
10988;BME280;5547;42.672;23.230;2023-05-23T14:11:22;93032.75;;;21.71;44.18
10988;BME280;5547;42.672;23.230;2023-05-23T14:14:23;93046.53;;;22.64;40.86
10988;BME280;5547;42.672;23.230;2023-05-23T14:17:24;93025.19;;;23.34;40.86
10988;BME280;5547;42.672;23.230;2023-05-23T14:20:24;93045.91;;;23.82;37.81
10988;BME280;5547;42.672;23.230;2023-05-23T14:23:25;92969.16;;;22.75;45.77
10988;BME280;5547;42.672;23.230;2023-05-23T14:26:28;93032.06;;;23.63;49.20
10988;BME280;5547;42.672;23.230;2023-05-23T14:29:29;93027.78;;;24.24;46.34
10988;BME280;5547;42.672;23.230;2023-05-23T14:32:31;93041.72;;;23.87;45.27
10988;BME280;5547;42.672;23.230;2023-05-23T14:35:37;92948.75;;;23.07;45.04
10988;BME280;5547;42.672;23.230;2023-05-23T14:38:38;93037.03;;;23.87;43.53
10988;BME280;5547;42.672;23.230;2023-05-23T14:41:39;93018.53;;;23.46;45.36
10988;BME280;5547;42.672;23.230;2023-05-23T14:44:39;93035.50;;;24.03;42.74
10988;BME280;5547;42.672;23.230;2023-05-23T14:47:40;93000.22;;;23.86;43.18
10988;BME280;5547;42.672;23.230;2023-05-23T14:50:41;93010.63;;;23.03;43.38
10988;BME280;5547;42.672;23.230;2023-05-23T14:53:42;93012.34;;;23.29;38.73
10988;BME280;5547;42.672;23.230;2023-05-23T14:56:42;93007.16;;;23.65;40.62
10988;BME280;5547;42.672;23.230;2023-05-23T14:59:43;92951.16;;;22.60;42.26
10988;BME280;5547;42.672;23.230;2023-05-23T15:02:43;92949.63;;;22.48;41.82
10988;BME280;5547;42.672;23.230;2023-05-23T15:05:44;93016.16;;;21.95;45.34
10988;BME280;5547;42.672;23.230;2023-05-23T15:08:45;93013.28;;;21.67;45.89
10988;BME280;5547;42.672;23.230;2023-05-23T15:11:47;93010.28;;;21.59;44.95
10988;BME280;5547;42.672;23.230;2023-05-23T15:14:49;93017.69;;;22.07;43.58
10988;BME280;5547;42.672;23.230;2023-05-23T15:17:50;93011.50;;;21.58;43.45
10988;BME280;5547;42.672;23.230;2023-05-23T15:20:50;92998.47;;;20.46;45.92
10988;BME280;5547;42.672;23.230;2023-05-23T15:23:51;93008.41;;;21.39;46.69
10988;BME280;5547;42.672;23.230;2023-05-23T15:26:52;92973.84;;;21.17;48.31
10988;BME280;5547;42.672;23.230;2023-05-23T15:29:53;93004.13;;;21.27;46.63
10988;BME280;5547;42.672;23.230;2023-05-23T15:32:53;93008.31;;;21.54;46.16
10988;BME280;5547;42.672;23.230;2023-05-23T15:35:54;92960.81;;;21.21;44.37
10988;BME280;5547;42.672;23.230;2023-05-23T15:38:56;93010.81;;;21.31;44.48
10988;BME280;5547;42.672;23.230;2023-05-23T15:41:58;92974.59;;;21.23;46.43
10988;BME280;5547;42.672;23.230;2023-05-23T15:44:58;93003.72;;;21.71;46.54
10988;BME280;5547;42.672;23.230;2023-05-23T15:47:58;92953.59;;;20.75;48.19
10988;BME280;5547;42.672;23.230;2023-05-23T15:50:59;93008.75;;;21.47;48.24
10988;BME280;5547;42.672;23.230;2023-05-23T15:53:59;92938.69;;;20.85;45.89
10988;BME280;5547;42.672;23.230;2023-05-23T15:57:00;92955.94;;;21.25;47.04
10988;BME280;5547;42.672;23.230;2023-05-23T16:00:00;92999.38;;;21.16;46.48
10988;BME280;5547;42.672;23.230;2023-05-23T16:03:00;92987.00;;;21.04;49.27
10988;BME280;5547;42.672;23.230;2023-05-23T16:06:01;92996.69;;;20.84;51.62
10988;BME280;5547;42.672;23.230;2023-05-23T16:09:01;92966.00;;;20.41;49.75
10988;BME280;5547;42.672;23.230;2023-05-23T16:12:02;93001.16;;;20.46;49.63